createdAt,value
2018-01-02T07:00:42.271Z,84.30
2018-01-02T07:03:09.828Z,84.00
2018-01-02T07:05:37.446Z,84.00
2018-01-02T07:08:12.148Z,83.90
2018-01-02T07:10:52.538Z,83.90
2018-01-02T07:13:20.080Z,83.70
2018-01-02T07:15:50.147Z,83.90
2018-01-02T07:21:23.597Z,83.80
2018-01-02T07:24:06.533Z,84.10
2018-01-02T07:26:43.782Z,84.10
2018-01-02T07:29:14.214Z,83.60
2018-01-02T07:31:49.485Z,83.60
2018-01-02T07:34:21.680Z,83.90
2018-01-02T07:36:51.127Z,83.90
2018-01-02T07:39:19.552Z,83.90
2018-01-02T07:41:47.084Z,83.90
2018-01-02T07:44:15.394Z,83.10
2018-01-02T07:46:45.241Z,83.10
2018-01-02T07:49:12.780Z,82.70
2018-01-02T07:51:40.307Z,83.80
2018-01-02T07:54:07.857Z,82.00
2018-01-02T07:56:35.386Z,81.80
2018-01-02T07:59:02.933Z,82.60
2018-01-02T08:01:30.472Z,82.10
2018-01-02T08:03:58.004Z,82.20
2018-01-02T08:06:25.559Z,82.40
2018-01-02T08:08:53.089Z,82.20
2018-01-02T08:11:20.679Z,82.10
2018-01-02T08:13:48.236Z,82.10
2018-01-02T08:16:15.770Z,82.00
2018-01-02T08:18:44.089Z,81.70
2018-01-02T08:21:11.615Z,81.70
2018-01-02T08:23:39.929Z,81.10
2018-01-02T08:26:07.457Z,81.00
2018-01-02T08:28:35.748Z,81.10
2018-01-02T08:31:03.321Z,81.00
2018-01-02T08:33:30.872Z,80.60
2018-01-02T08:35:58.431Z,80.30
2018-01-02T08:38:25.968Z,81.10
2018-01-02T08:40:54.277Z,80.10
2018-01-02T08:43:21.804Z,80.00
2018-01-02T08:45:50.108Z,79.50
2018-01-02T08:48:17.632Z,79.40
2018-01-02T08:50:45.956Z,79.10
2018-01-02T08:53:13.487Z,79.00
2018-01-02T08:55:41.784Z,77.70
2018-01-02T08:58:09.336Z,77.50
2018-01-02T09:00:36.868Z,77.50
2018-01-02T09:03:05.171Z,76.20
2018-01-02T09:05:32.713Z,76.20
2018-01-02T09:08:01.016Z,75.80
2018-01-02T09:10:28.549Z,75.80
2018-01-02T09:12:56.863Z,75.90
2018-01-02T16:09:29.307Z,72.90
2018-01-02T16:11:56.847Z,73.50
2018-01-02T16:14:24.367Z,73.80
2018-01-02T16:16:51.919Z,73.40
2018-01-02T16:19:19.515Z,72.70
2018-01-02T16:21:47.044Z,72.50
2018-01-02T16:24:15.384Z,72.90
2018-01-02T16:26:43.031Z,72.90
2018-01-02T16:29:10.617Z,73.10
2018-01-02T16:31:38.997Z,73.50
2018-01-02T16:34:07.366Z,73.60
2018-01-02T16:36:34.990Z,73.50
2018-01-02T16:39:02.601Z,73.70
2018-01-02T16:41:30.961Z,73.20
2018-01-02T16:43:58.522Z,73.20
2018-01-02T16:46:26.083Z,73.70
2018-01-02T16:48:54.482Z,73.60
2018-01-02T16:51:22.859Z,73.70
2018-01-02T16:53:50.443Z,73.60
2018-01-02T16:56:18.088Z,73.80
2018-01-02T16:58:46.724Z,73.40
2018-01-02T17:01:14.318Z,73.30
2018-01-02T17:03:41.934Z,73.50
2018-01-02T17:06:09.488Z,73.00
2018-01-02T17:08:37.056Z,72.40
2018-01-02T17:11:04.676Z,71.80
2018-01-02T17:13:32.274Z,71.30
2018-01-02T17:15:59.825Z,72.00
2018-01-02T17:18:27.427Z,72.20
2018-01-02T17:20:55.029Z,71.80
2018-01-02T17:23:22.659Z,71.80
2018-01-02T17:25:50.271Z,71.10
2018-01-02T17:28:17.858Z,71.80
2018-01-02T17:30:45.441Z,71.00
2018-01-02T17:33:13.042Z,71.30
2018-01-02T17:35:41.894Z,71.70
2018-01-02T17:38:10.268Z,71.20
2018-01-02T17:40:37.865Z,71.20
2018-01-02T17:43:05.475Z,71.10
2018-01-02T17:45:33.914Z,71.00
2018-01-02T17:48:02.516Z,71.10
2018-01-02T17:53:14.501Z,71.20
2018-01-02T17:55:45.645Z,71.30
2018-01-02T17:58:23.209Z,71.90
2018-01-02T18:00:55.955Z,71.10
2018-01-02T18:03:29.257Z,71.10
2018-01-02T18:06:02.982Z,71.20
2018-01-02T18:08:32.895Z,71.40
2018-01-02T18:11:02.730Z,70.90
2018-01-02T18:13:34.403Z,70.70
2018-01-02T18:16:05.344Z,70.80
2018-01-02T18:18:33.888Z,71.20
2018-01-02T18:21:03.120Z,70.90
2018-01-02T18:23:32.075Z,70.70
2018-01-02T18:26:00.181Z,70.70
2018-01-02T18:28:29.138Z,70.80
2018-01-02T18:30:57.544Z,70.80
2018-01-02T18:33:25.915Z,70.40
2018-01-02T18:35:54.277Z,69.80
2018-01-02T18:38:21.918Z,69.80
2018-01-02T18:40:50.588Z,69.70
2018-01-02T18:43:19.959Z,69.70
2018-01-02T18:45:48.305Z,69.80
2018-01-02T18:48:17.216Z,69.90
2018-01-02T18:50:49.870Z,69.80
2018-01-02T18:53:20.530Z,69.80
2018-01-02T18:55:49.880Z,69.80
2018-01-02T18:58:17.511Z,70.00
2018-01-02T19:00:45.194Z,69.80
2018-01-02T19:03:12.791Z,69.70
2018-01-02T19:05:40.417Z,69.70
2018-01-02T19:08:08.006Z,69.70
2018-01-02T19:10:35.879Z,69.10
2018-01-02T19:13:03.474Z,69.70
2018-01-02T19:15:33.498Z,69.50
2018-01-02T19:18:01.901Z,69.40
2018-01-02T19:20:29.569Z,69.40
2018-01-02T19:22:57.159Z,69.90
2018-01-02T19:25:24.697Z,70.20
2018-01-02T19:27:52.263Z,70.10
2018-01-02T19:30:19.823Z,70.30
2018-01-02T19:32:47.413Z,70.40
2018-01-02T19:35:14.998Z,70.50
2018-01-02T19:37:42.589Z,69.90
2018-01-02T19:40:10.162Z,70.60
2018-01-02T19:42:37.761Z,70.90
2018-01-02T19:45:06.180Z,71.90
2018-01-02T19:47:33.824Z,71.70
2018-01-02T19:50:01.415Z,71.30
2018-01-02T19:52:29.018Z,71.50
2018-01-02T19:54:56.616Z,71.80
2018-01-02T19:57:24.219Z,72.70
2018-01-02T19:59:51.850Z,72.20
2018-01-02T20:02:19.442Z,72.30
2018-01-02T20:04:47.034Z,72.60
2018-01-02T20:07:15.379Z,72.10
2018-01-02T20:09:42.956Z,72.00
2018-01-02T20:12:10.550Z,72.10
2018-01-02T20:14:38.136Z,73.20
2018-01-02T20:17:05.794Z,72.70
2018-01-02T20:19:33.373Z,73.70
2018-01-02T20:22:00.999Z,73.50
2018-01-02T20:24:28.607Z,74.00
2018-01-02T20:26:56.236Z,74.60
2018-01-02T20:29:24.600Z,74.30
2018-01-02T20:31:52.210Z,75.10
2018-01-02T20:34:19.830Z,75.60
2018-01-02T20:36:47.410Z,76.10
2018-01-02T20:39:15.047Z,76.00
2018-01-02T20:41:42.718Z,76.20
2018-01-02T20:44:10.358Z,76.50
2018-01-02T20:46:37.961Z,76.40
2018-01-02T20:49:05.539Z,76.90
2018-01-02T20:51:33.121Z,77.00
2018-01-02T20:54:01.480Z,77.20
2018-01-02T20:56:29.081Z,77.10
2018-01-02T20:58:56.657Z,76.70
2018-01-02T21:01:24.251Z,76.70
2018-01-02T21:03:53.378Z,75.80
2018-01-02T21:06:21.715Z,75.60
2018-01-02T21:08:49.308Z,75.60
2018-01-02T21:11:17.655Z,76.10
2018-01-02T21:13:45.255Z,75.30
2018-01-02T21:16:13.598Z,75.40
2018-01-02T21:18:41.171Z,75.40
2018-01-02T21:21:08.811Z,74.90
2018-01-02T21:23:36.406Z,74.60
2018-01-02T21:26:04.762Z,74.30
2018-01-02T21:28:32.339Z,73.50
2018-01-02T21:30:59.924Z,73.00
2018-01-02T21:33:28.270Z,72.10
2018-01-02T21:35:55.867Z,72.10
2018-01-02T21:38:23.475Z,70.90
2018-01-02T21:40:51.053Z,71.30
2018-01-02T21:43:18.631Z,70.20
2018-01-02T21:45:46.980Z,70.00
2018-01-02T21:48:14.558Z,70.00
2018-01-02T21:50:55.436Z,68.10
2018-01-02T21:53:31.110Z,67.80
2018-01-02T21:56:12.165Z,67.70
2018-01-02T21:58:53.531Z,66.10
2018-01-02T22:01:36.127Z,66.10
2018-01-02T22:04:16.714Z,65.40
2018-01-02T22:06:46.991Z,65.20
2018-01-02T22:09:28.826Z,65.00
2018-01-02T22:12:06.379Z,64.70
2018-01-02T22:14:34.864Z,64.70
2018-01-02T22:17:17.338Z,64.20
2018-01-02T22:19:57.752Z,65.20
2018-01-02T22:22:39.130Z,65.20
2018-01-02T22:25:11.408Z,64.50
2018-01-02T22:27:51.381Z,64.90
2018-01-02T22:30:28.742Z,65.00
2018-01-02T22:33:09.961Z,64.60
2018-01-02T22:35:52.599Z,65.20
2018-01-02T22:38:35.021Z,65.20
2018-01-02T22:41:18.232Z,65.00
2018-01-02T22:43:59.316Z,65.90
2018-01-02T22:46:40.258Z,65.90
2018-01-02T22:49:21.856Z,66.80
2018-01-02T22:52:04.113Z,67.90
2018-01-02T22:54:43.187Z,67.80
2018-01-02T22:57:20.094Z,68.90
2018-01-02T23:00:00.316Z,68.80
2018-01-02T23:02:39.037Z,69.30
2018-01-02T23:05:20.240Z,69.70
2018-01-02T23:08:02.330Z,69.70
2018-01-02T23:10:42.336Z,70.20
2018-01-02T23:13:10.948Z,70.10
2018-01-02T23:15:39.605Z,70.40
2018-01-02T23:18:08.989Z,70.30
2018-01-02T23:20:40.099Z,70.70
2018-01-02T23:23:09.669Z,70.70
2018-01-02T23:25:39.292Z,70.80
2018-01-02T23:28:20.191Z,70.90
2018-01-02T23:31:01.923Z,71.00
2018-01-02T23:33:42.012Z,71.30
2018-01-02T23:36:22.159Z,72.00
2018-01-02T23:38:51.028Z,71.90
2018-01-02T23:41:34.477Z,72.20
2018-01-02T23:44:17.344Z,72.10
2018-01-02T23:46:55.797Z,73.00
2018-01-02T23:49:34.768Z,72.70
2018-01-02T23:52:11.735Z,73.00
2018-01-02T23:54:47.201Z,72.90
2018-01-02T23:57:22.034Z,72.70
2018-01-02T23:59:54.948Z,73.00
